Time;durP1;ratioP1;P1;durP2;ratioP2;P2;SDS_P1;SDS_P2;PMS_P1;PMS_P2;Temp;Humidity;BMP_temperature;BMP_pressure;BME280_temperature;BME280_humidity;BME280_pressure;Samples;Min_cycle;Max_cycle;Signal;HPM_P1;HPM_P2
2022/10/28 00:01:14;;;;;;;;;;;;;;;18.90;96.37;100912.56;7386792;19;19918;-61
2022/10/28 00:03:42;;;;;;;;;;;;;;;18.88;96.36;100915.47;7386147;19;19918;-61
2022/10/28 00:06:13;;;;;;;;;;;;;;;18.86;96.54;100911.34;7387702;19;20037;-62
2022/10/28 00:08:41;;;;;;;;;;;;;;;18.83;96.58;100920.59;7389002;19;19948;-62
2022/10/28 00:11:10;;;;;;;;;;;;;;;18.83;96.80;100920.59;7385125;19;20294;-65
2022/10/28 00:13:37;;;;;;;;;;;;;;;18.82;96.87;100926.94;7384823;19;19915;-61
2022/10/28 00:16:05;;;;;;;;;;;;;;;18.82;96.78;100928.78;7387267;19;19959;-61
2022/10/28 00:18:31;;;;;;;;;;;;;;;18.83;96.97;100922.44;7387013;19;19956;-61
2022/10/28 00:21:02;;;;;;;;;;;;;;;18.82;97.07;100926.13;7385549;19;19915;-61
2022/10/28 00:23:29;;;;;;;;;;;;;;;18.81;96.93;100927.97;7387966;19;19949;-61
2022/10/28 00:26:02;;;;;;;;;;;;;;;18.80;97.15;100923.66;7386368;19;19914;-62
2022/10/28 00:28:29;;;;;;;;;;;;;;;18.80;97.37;100926.31;7384626;19;19943;-61
2022/10/28 00:31:01;;;;;;;;;;;;;;;18.79;97.09;100930.81;7388343;19;20337;-61
2022/10/28 00:33:28;;;;;;;;;;;;;;;18.78;97.50;100929.19;7387928;19;19915;-61
2022/10/28 00:35:54;;;;;;;;;;;;;;;18.79;97.15;100927.38;7388607;19;20336;-61
2022/10/28 00:38:21;;;;;;;;;;;;;;;18.76;97.50;100912.56;7386834;19;19911;-62
2022/10/28 00:40:47;;;;;;;;;;;;;;;18.77;97.74;100916.88;7387483;19;19929;-61
2022/10/28 00:43:14;;;;;;;;;;;;;;;18.76;97.39;100909.91;7383417;19;19927;-61
2022/10/28 00:45:41;;;;;;;;;;;;;;;18.77;97.46;100913.41;7383836;19;19947;-62
2022/10/28 00:48:08;;;;;;;;;;;;;;;18.75;97.30;100910.94;7386711;19;19923;-61
2022/10/28 00:50:34;;;;;;;;;;;;;;;18.73;97.66;100898.84;7385391;19;20336;-59
2022/10/28 00:53:03;;;;;;;;;;;;;;;18.72;97.59;100905.19;7385677;19;19950;-61
2022/10/28 00:55:30;;;;;;;;;;;;;;;18.70;97.43;100910.72;7385710;19;19911;-61
2022/10/28 00:57:58;;;;;;;;;;;;;;;18.70;97.37;100913.38;7382959;19;19923;-61
2022/10/28 01:00:24;;;;;;;;;;;;;;;18.71;97.55;100919.53;7383252;19;20332;-62
2022/10/28 01:02:51;;;;;;;;;;;;;;;18.70;97.80;100916.06;7385575;19;20376;-60
2022/10/28 01:05:21;;;;;;;;;;;;;;;18.68;97.40;100907.44;7383145;19;20382;-61
2022/10/28 01:07:50;;;;;;;;;;;;;;;18.66;97.19;100901.50;7382407;19;20344;-60
2022/10/28 01:10:18;;;;;;;;;;;;;;;18.65;97.63;100912.34;7385673;19;20459;-61
2022/10/28 01:12:44;;;;;;;;;;;;;;;18.63;97.65;100909.91;7383089;19;19955;-61
2022/10/28 01:15:11;;;;;;;;;;;;;;;18.63;97.95;100914.41;7384534;19;20566;-61
2022/10/28 01:17:43;;;;;;;;;;;;;;;18.62;97.74;100908.25;7384879;19;19968;-61
2022/10/28 01:20:10;;;;;;;;;;;;;;;18.59;97.50;100913.19;7384943;19;20254;-60
2022/10/28 01:22:55;;;;;;;;;;;;;;;18.59;97.73;100905.97;7386160;19;19944;-59
2022/10/28 01:25:41;;;;;;;;;;;;;;;18.58;97.80;100904.38;7384135;19;19990;-61
2022/10/28 01:28:10;;;;;;;;;;;;;;;18.57;97.88;100907.22;7381344;19;20337;-61
2022/10/28 01:30:55;;;;;;;;;;;;;;;18.54;97.87;100900.44;7385604;19;19919;-61
2022/10/28 01:33:48;;;;;;;;;;;;;;;18.54;97.66;100899.66;7384650;19;20296;-61
2022/10/28 01:36:14;;;;;;;;;;;;;;;18.53;97.93;100901.47;7383928;19;19927;-61
2022/10/28 01:38:47;;;;;;;;;;;;;;;18.53;98.12;100903.28;7384595;19;20858;-62
2022/10/28 01:41:18;;;;;;;;;;;;;;;18.52;98.23;100905.13;7384621;19;19951;-61
2022/10/28 01:43:45;;;;;;;;;;;;;;;18.50;98.21;100885.84;7383716;19;20372;-62
2022/10/28 01:46:22;;;;;;;;;;;;;;;18.50;97.96;100883.19;7384008;19;20411;-61
2022/10/28 01:49:01;;;;;;;;;;;;;;;18.50;98.42;100888.53;7383633;19;19953;-61
2022/10/28 01:51:31;;;;;;;;;;;;;;;18.49;98.17;100891.41;7384671;19;19919;-61
2022/10/28 01:53:59;;;;;;;;;;;;;;;18.48;98.38;100887.09;7386467;19;19935;-61
2022/10/28 01:56:29;;;;;;;;;;;;;;;18.44;98.26;100889.31;7380918;19;19963;-62
2022/10/28 01:58:57;;;;;;;;;;;;;;;18.44;98.63;100877.88;7382486;19;20325;-61
2022/10/28 02:01:26;;;;;;;;;;;;;;;18.43;98.45;100868.22;7384175;19;19951;-61
2022/10/28 02:03:53;;;;;;;;;;;;;;;18.42;98.59;100866.59;7390392;19;20339;-62
2022/10/28 02:06:21;;;;;;;;;;;;;;;18.42;98.91;100859.41;7390862;19;19948;-61
2022/10/28 02:09:07;;;;;;;;;;;;;;;18.42;98.29;100867.41;7388591;19;19927;-61
2022/10/28 02:11:52;;;;;;;;;;;;;;;18.42;98.71;100866.59;7384827;19;19940;-60
2022/10/28 02:14:28;;;;;;;;;;;;;;;18.41;98.49;100852.44;7390627;19;19943;-61
2022/10/28 02:17:01;;;;;;;;;;;;;;;18.41;98.73;100849.78;7391539;19;19924;-60
2022/10/28 02:19:27;;;;;;;;;;;;;;;18.41;98.63;100846.28;7390963;19;20374;-61
2022/10/28 02:22:04;;;;;;;;;;;;;;;18.42;98.80;100839.94;7391911;19;19911;-61
2022/10/28 02:24:50;;;;;;;;;;;;;;;18.43;98.94;100836.25;7389083;19;19918;-61
2022/10/28 02:27:22;;;;;;;;;;;;;;;18.41;98.82;100823.13;7388821;19;19921;-61
2022/10/28 02:29:57;;;;;;;;;;;;;;;18.40;98.66;100818.81;7387409;19;19949;-61
2022/10/28 02:32:26;;;;;;;;;;;;;;;18.38;98.98;100816.38;7391914;19;19915;-61
2022/10/28 02:34:55;;;;;;;;;;;;;;;18.38;98.90;100818.22;7392069;19;19915;-61
2022/10/28 02:37:27;;;;;;;;;;;;;;;18.41;99.14;100807.13;7391084;19;19914;-61
2022/10/28 02:39:55;;;;;;;;;;;;;;;18.41;99.21;100799.13;7390829;19;19931;-61
2022/10/28 02:42:47;;;;;;;;;;;;;;;18.41;98.98;100814.31;7389083;19;19923;-60
2022/10/28 02:45:27;;;;;;;;;;;;;;;18.40;99.42;100808.16;7389549;19;20347;-61
2022/10/28 02:47:57;;;;;;;;;;;;;;;18.39;99.12;100790.53;7391686;19;20368;-60
2022/10/28 02:50:28;;;;;;;;;;;;;;;18.39;99.11;100786.00;7391856;19;19915;-61
2022/10/28 02:52:57;;;;;;;;;;;;;;;18.40;99.07;100784.16;7390070;19;19947;-61
2022/10/28 02:55:28;;;;;;;;;;;;;;;18.41;98.85;100772.50;7388141;19;19922;-61
2022/10/28 02:57:55;;;;;;;;;;;;;;;18.39;99.42;100764.69;7386383;19;19928;-61
2022/10/28 03:00:23;;;;;;;;;;;;;;;18.40;99.28;100762.84;7386545;19;19935;-61
2022/10/28 03:02:50;;;;;;;;;;;;;;;18.41;99.48;100755.69;7388023;19;21074;-61
2022/10/28 03:05:17;;;;;;;;;;;;;;;18.39;99.18;100742.56;7389637;19;19947;-62
2022/10/28 03:07:46;;;;;;;;;;;;;;;18.38;99.13;100744.44;7384854;19;19938;-61
2022/10/28 03:10:17;;;;;;;;;;;;;;;18.38;99.21;100755.09;7388969;19;19914;-61
2022/10/28 03:12:43;;;;;;;;;;;;;;;18.39;99.13;100746.03;7386709;19;19942;-60
2022/10/28 03:15:10;;;;;;;;;;;;;;;18.38;98.97;100755.09;7389728;19;20267;-61
2022/10/28 03:17:37;;;;;;;;;;;;;;;18.37;99.01;100745.44;7389861;19;19918;-61
2022/10/28 03:20:03;;;;;;;;;;;;;;;18.36;98.86;100738.47;7390309;19;20011;-61
2022/10/28 03:22:30;;;;;;;;;;;;;;;18.36;98.77;100732.31;7389425;19;20341;-61
2022/10/28 03:24:57;;;;;;;;;;;;;;;18.34;99.22;100732.53;7388240;19;20011;-61
2022/10/28 03:27:23;;;;;;;;;;;;;;;18.34;99.07;100732.53;7384261;19;19923;-61
2022/10/28 03:29:50;;;;;;;;;;;;;;;18.36;98.98;100733.16;7388121;19;20336;-62
2022/10/28 03:32:17;;;;;;;;;;;;;;;18.35;98.87;100728.84;7389233;19;20298;-62
2022/10/28 03:34:46;;;;;;;;;;;;;;;18.34;98.83;100721.88;7388044;19;20273;-61
2022/10/28 03:37:14;;;;;;;;;;;;;;;18.33;98.93;100724.75;7389904;19;19966;-61
2022/10/28 03:39:40;;;;;;;;;;;;;;;18.32;98.88;100717.78;7388937;19;19926;-61
2022/10/28 03:42:07;;;;;;;;;;;;;;;18.32;98.80;100712.44;7385338;19;19923;-61
2022/10/28 03:44:33;;;;;;;;;;;;;;;18.32;98.45;100709.78;7386320;19;19938;-61
2022/10/28 03:47:00;;;;;;;;;;;;;;;18.32;98.77;100710.59;7386682;19;19956;-61
2022/10/28 03:49:27;;;;;;;;;;;;;;;18.33;98.82;100712.25;7387226;19;19918;-60
2022/10/28 03:51:53;;;;;;;;;;;;;;;18.32;98.97;100710.59;7389727;19;19922;-61
2022/10/28 03:54:20;;;;;;;;;;;;;;;18.31;98.73;100703.63;7388471;19;19922;-60
2022/10/28 03:56:47;;;;;;;;;;;;;;;18.30;98.71;100703.84;7387378;19;19923;-60
2022/10/28 03:59:13;;;;;;;;;;;;;;;18.30;98.71;100703.84;7388274;19;19949;-61
2022/10/28 04:01:45;;;;;;;;;;;;;;;18.31;98.63;100713.47;7388192;19;19929;-61
2022/10/28 04:04:12;;;;;;;;;;;;;;;18.31;98.44;100724.13;7389221;19;20403;-61
2022/10/28 04:06:39;;;;;;;;;;;;;;;18.32;98.38;100734.59;7388278;19;19922;-61
2022/10/28 04:09:05;;;;;;;;;;;;;;;18.29;98.66;100729.66;7385686;19;19914;-62
2022/10/28 04:11:32;;;;;;;;;;;;;;;18.28;98.52;100744.03;7385958;19;19935;-61
2022/10/28 04:13:58;;;;;;;;;;;;;;;18.27;98.58;100736.22;7385711;19;19938;-61
2022/10/28 04:16:25;;;;;;;;;;;;;;;18.24;98.37;100729.44;7386869;19;19947;-61
2022/10/28 04:18:52;;;;;;;;;;;;;;;18.25;98.71;100717.78;7385904;19;20449;-61
2022/10/28 04:21:18;;;;;;;;;;;;;;;18.24;98.71;100721.47;7386536;19;19952;-62
2022/10/28 04:23:45;;;;;;;;;;;;;;;18.24;98.52;100715.31;7387579;19;19939;-61
2022/10/28 04:26:13;;;;;;;;;;;;;;;18.20;98.72;100722.91;7381644;19;20261;-61
2022/10/28 04:28:39;;;;;;;;;;;;;;;18.19;98.56;100710.59;7386099;19;20215;-60
2022/10/28 04:31:06;;;;;;;;;;;;;;;18.18;98.44;100700.16;7387569;19;19939;-61
2022/10/28 04:33:33;;;;;;;;;;;;;;;18.16;98.45;100695.03;7387206;19;19939;-60
2022/10/28 04:35:59;;;;;;;;;;;;;;;18.16;98.91;100703.03;7387189;19;20021;-61
2022/10/28 04:38:26;;;;;;;;;;;;;;;18.16;98.89;100694.22;7384603;19;19922;-60
2022/10/28 04:40:53;;;;;;;;;;;;;;;18.16;99.03;100692.38;7386308;19;20333;-61
2022/10/28 04:43:19;;;;;;;;;;;;;;;18.14;98.71;100699.75;7380961;19;19930;-60
2022/10/28 04:45:46;;;;;;;;;;;;;;;18.14;98.71;100688.25;7384043;19;20530;-61
2022/10/28 04:48:13;;;;;;;;;;;;;;;18.12;98.76;100677.00;7383389;19;19953;-61
2022/10/28 04:50:39;;;;;;;;;;;;;;;18.12;98.62;100682.34;7386731;19;20278;-60
2022/10/28 04:53:06;;;;;;;;;;;;;;;18.14;99.06;100682.94;7385334;19;19923;-61
2022/10/28 04:55:33;;;;;;;;;;;;;;;18.13;99.23;100681.31;7386002;19;19923;-61
2022/10/28 04:58:00;;;;;;;;;;;;;;;18.13;99.12;100681.31;7383301;19;19927;-61
2022/10/28 05:00:27;;;;;;;;;;;;;;;18.11;99.26;100681.53;7385746;19;19926;-60
2022/10/28 05:02:54;;;;;;;;;;;;;;;18.12;99.21;100677.84;7386405;19;20261;-60
2022/10/28 05:05:22;;;;;;;;;;;;;;;18.11;99.01;100680.69;7383248;19;19998;-60
2022/10/28 05:07:48;;;;;;;;;;;;;;;18.11;99.40;100675.38;7386332;19;19919;-61
2022/10/28 05:10:16;;;;;;;;;;;;;;;18.09;100.00;100674.75;7386248;19;19918;-59
2022/10/28 05:12:44;;;;;;;;;;;;;;;18.10;99.46;100674.56;7383662;19;19939;-60
2022/10/28 05:15:16;;;;;;;;;;;;;;;18.12;99.66;100677.00;7385423;19;20611;-61
2022/10/28 05:17:52;;;;;;;;;;;;;;;18.11;99.41;100676.19;7386743;19;20222;-61
2022/10/28 05:20:19;;;;;;;;;;;;;;;18.12;99.39;100677.84;7386886;19;19915;-61
2022/10/28 05:22:46;;;;;;;;;;;;;;;18.12;99.53;100680.50;7387122;19;19954;-60
2022/10/28 05:25:13;;;;;;;;;;;;;;;18.14;99.66;100683.75;7385366;19;19911;-60
2022/10/28 05:27:41;;;;;;;;;;;;;;;18.18;100.00;100689.53;7380771;19;19952;-61
2022/10/28 05:30:10;;;;;;;;;;;;;;;18.20;99.99;100701.59;7380300;19;19918;-61
2022/10/28 05:32:39;;;;;;;;;;;;;;;18.22;99.83;100712.03;7385076;19;19940;-59
2022/10/28 05:35:06;;;;;;;;;;;;;;;18.25;99.62;100733.75;7385633;19;19919;-61
2022/10/28 05:37:33;;;;;;;;;;;;;;;18.28;99.60;100724.56;7387203;19;19938;-61
2022/10/28 05:40:00;;;;;;;;;;;;;;;18.29;99.84;100719.00;7391670;19;19922;-62
2022/10/28 05:42:26;;;;;;;;;;;;;;;18.34;99.97;100719.19;7389731;19;19915;-61
2022/10/28 05:44:53;;;;;;;;;;;;;;;18.39;99.95;100699.91;7388436;19;19939;-59
2022/10/28 05:47:20;;;;;;;;;;;;;;;18.43;99.63;100709.16;7393050;19;19951;-61
2022/10/28 05:49:46;;;;;;;;;;;;;;;18.44;98.94;100700.13;7392404;19;19926;-60
2022/10/28 05:52:13;;;;;;;;;;;;;;;18.45;98.74;100696.44;7391483;19;19914;-61
2022/10/28 05:54:40;;;;;;;;;;;;;;;18.48;98.28;100701.38;7391377;19;20353;-61
2022/10/28 05:57:07;;;;;;;;;;;;;;;18.51;98.15;100697.47;7389533;19;20311;-62
2022/10/28 05:59:33;;;;;;;;;;;;;;;18.55;97.88;100710.19;7389585;19;19927;-61
2022/10/28 06:02:00;;;;;;;;;;;;;;;18.58;97.52;100712.47;7390450;19;19914;-62
2022/10/28 06:04:26;;;;;;;;;;;;;;;18.61;97.45;100704.03;7390177;19;19923;-60
2022/10/28 06:06:54;;;;;;;;;;;;;;;18.63;96.99;100696.66;7389165;19;20587;-61
2022/10/28 06:09:21;;;;;;;;;;;;;;;18.64;96.93;100692.16;7390943;19;19927;-61
2022/10/28 06:11:48;;;;;;;;;;;;;;;18.63;96.44;100691.31;7390036;19;19922;-61
2022/10/28 06:14:14;;;;;;;;;;;;;;;18.65;96.01;100697.25;7391596;19;19955;-61
2022/10/28 06:16:41;;;;;;;;;;;;;;;18.68;95.76;100688.03;7390485;19;19923;-60
2022/10/28 06:19:07;;;;;;;;;;;;;;;18.71;96.46;100679.59;7388849;19;19918;-60
2022/10/28 06:21:34;;;;;;;;;;;;;;;18.70;96.18;100684.13;7388900;19;19988;-61
2022/10/28 06:24:01;;;;;;;;;;;;;;;18.72;95.53;100713.25;7391548;19;19919;-62
2022/10/28 06:26:28;;;;;;;;;;;;;;;18.72;95.29;100724.72;7387265;19;19931;-60
2022/10/28 06:28:55;;;;;;;;;;;;;;;18.71;95.16;100716.94;7389173;19;20011;-61
2022/10/28 06:31:21;;;;;;;;;;;;;;;18.72;95.11;100710.56;7390647;19;19919;-61
2022/10/28 06:33:48;;;;;;;;;;;;;;;18.72;95.30;100711.41;7389142;19;19921;-61
2022/10/28 06:36:15;;;;;;;;;;;;;;;18.75;95.25;100718.13;7390846;19;19918;-62
2022/10/28 06:38:41;;;;;;;;;;;;;;;18.78;95.40;100717.75;7391164;19;19932;-61
2022/10/28 06:41:08;;;;;;;;;;;;;;;18.77;94.99;100721.44;7388995;19;19955;-63
2022/10/28 06:43:35;;;;;;;;;;;;;;;18.74;94.65;100722.66;7388396;19;19938;-60
2022/10/28 06:46:02;;;;;;;;;;;;;;;18.74;94.39;100719.19;7389399;19;20547;-60
2022/10/28 06:48:29;;;;;;;;;;;;;;;18.74;94.64;100727.19;7390230;19;19938;-58
2022/10/28 06:50:56;;;;;;;;;;;;;;;18.74;94.33;100740.53;7389937;19;19919;-60
2022/10/28 06:53:24;;;;;;;;;;;;;;;18.75;95.01;100732.28;7390386;19;19915;-61
2022/10/28 06:55:51;;;;;;;;;;;;;;;18.76;94.79;100735.78;7391220;19;19943;-61
2022/10/28 06:58:18;;;;;;;;;;;;;;;18.77;94.22;100742.75;7387081;19;19915;-61
2022/10/28 07:00:45;;;;;;;;;;;;;;;18.77;94.31;100737.44;7388906;19;19923;-61
2022/10/28 07:03:11;;;;;;;;;;;;;;;18.78;94.06;100742.56;7387999;19;19939;-61
2022/10/28 07:05:38;;;;;;;;;;;;;;;18.76;93.40;100739.28;7388708;19;19931;-61
2022/10/28 07:08:05;;;;;;;;;;;;;;;18.77;93.53;100748.09;7389520;19;19947;-60
2022/10/28 07:10:32;;;;;;;;;;;;;;;18.78;93.97;100752.41;7390792;19;19922;-61
2022/10/28 07:12:58;;;;;;;;;;;;;;;18.79;94.01;100756.72;7386293;19;20443;-61
2022/10/28 07:15:25;;;;;;;;;;;;;;;18.79;93.52;100767.38;7390562;19;20166;-60
2022/10/28 07:17:52;;;;;;;;;;;;;;;18.79;93.44;100760.16;7389323;19;20283;-60
2022/10/28 07:20:19;;;;;;;;;;;;;;;18.80;93.69;100761.81;7390861;19;20277;-60
2022/10/28 07:22:46;;;;;;;;;;;;;;;18.81;93.76;100759.97;7389013;19;20561;-61
2022/10/28 07:25:12;;;;;;;;;;;;;;;18.81;93.46;100757.31;7388502;19;20277;-60
2022/10/28 07:27:39;;;;;;;;;;;;;;;18.82;93.60;100756.28;7385477;19;21034;-61
2022/10/28 07:30:06;;;;;;;;;;;;;;;18.86;93.87;100756.69;7385466;19;19915;-62
2022/10/28 07:32:32;;;;;;;;;;;;;;;18.87;93.71;100764.47;7387766;19;19923;-63
2022/10/28 07:34:59;;;;;;;;;;;;;;;18.89;93.36;100773.09;7385686;19;20384;-60
2022/10/28 07:37:26;;;;;;;;;;;;;;;18.89;93.14;100767.78;7388733;19;19915;-61
2022/10/28 07:39:52;;;;;;;;;;;;;;;18.91;93.07;100787.03;7387493;19;19923;-61
2022/10/28 07:42:19;;;;;;;;;;;;;;;18.93;93.07;100809.00;7386639;19;19960;-61
2022/10/28 07:44:46;;;;;;;;;;;;;;;18.93;92.51;100813.50;7382773;19;19922;-60
2022/10/28 07:47:13;;;;;;;;;;;;;;;18.96;93.20;100813.06;7385125;19;19922;-60
2022/10/28 07:49:39;;;;;;;;;;;;;;;19.04;94.91;100816.38;7388686;19;19918;-61
2022/10/28 07:52:06;;;;;;;;;;;;;;;19.09;94.67;100813.06;7387627;19;19919;-61
2022/10/28 07:54:33;;;;;;;;;;;;;;;19.12;94.03;100817.97;7390093;19;19940;-62
2022/10/28 07:57:00;;;;;;;;;;;;;;;19.16;94.07;100812.00;7385357;19;19919;-62
2022/10/28 07:59:26;;;;;;;;;;;;;;;19.18;93.49;100817.97;7386850;19;19918;-61
2022/10/28 08:01:53;;;;;;;;;;;;;;;19.21;92.87;100820.19;7386706;19;19942;-63
2022/10/28 08:04:20;;;;;;;;;;;;;;;19.23;92.83;100812.81;7388219;19;19942;-60
2022/10/28 08:06:47;;;;;;;;;;;;;;;19.25;92.75;100803.78;7385405;19;19946;-62
2022/10/28 08:09:15;;;;;;;;;;;;;;;19.27;92.00;100817.72;7389919;19;19911;-61
2022/10/28 08:11:41;;;;;;;;;;;;;;;19.26;91.58;100832.09;7382875;19;20289;-59
2022/10/28 08:14:08;;;;;;;;;;;;;;;19.27;91.61;100829.22;7388241;19;19952;-60
2022/10/28 08:16:35;;;;;;;;;;;;;;;19.30;91.62;100828.00;7384510;19;19946;-59
2022/10/28 08:19:01;;;;;;;;;;;;;;;19.32;91.49;100823.25;7389344;19;19943;-60
2022/10/28 08:21:33;;;;;;;;;;;;;;;19.32;91.07;100832.06;7385551;19;19990;-61
2022/10/28 08:23:59;;;;;;;;;;;;;;;19.32;91.42;100839.25;7388497;19;20316;-62
2022/10/28 08:26:26;;;;;;;;;;;;;;;19.32;91.49;100845.41;7384373;19;19919;-62
2022/10/28 08:28:53;;;;;;;;;;;;;;;19.32;91.34;100837.41;7386347;19;19950;-61
2022/10/28 08:31:19;;;;;;;;;;;;;;;19.33;91.14;100847.06;7383996;19;19948;-61
2022/10/28 08:33:46;;;;;;;;;;;;;;;19.33;90.50;100852.41;7388328;19;19934;-63
2022/10/28 08:36:14;;;;;;;;;;;;;;;19.32;90.99;100857.94;7387113;19;20485;-62
2022/10/28 08:38:45;;;;;;;;;;;;;;;19.32;91.49;100853.44;7386861;19;20020;-64
2022/10/28 08:41:20;;;;;;;;;;;;;;;19.32;90.79;100849.94;7384864;19;19939;-62
2022/10/28 08:44:07;;;;;;;;;;;;;;;19.29;90.79;100853.84;7383903;19;20534;-60
2022/10/28 08:46:53;;;;;;;;;;;;;;;19.31;91.50;100853.63;7383784;19;19923;-62
2022/10/28 08:49:22;;;;;;;;;;;;;;;19.30;91.04;100865.34;7387060;19;20452;-61
2022/10/28 08:52:07;;;;;;;;;;;;;;;19.28;90.17;100852.22;7385421;19;19919;-61
2022/10/28 08:54:46;;;;;;;;;;;;;;;19.28;90.12;100857.53;7384801;19;19954;-61
2022/10/28 08:57:19;;;;;;;;;;;;;;;19.30;89.48;100860.81;7385093;19;19951;-61
2022/10/28 08:59:49;;;;;;;;;;;;;;;19.32;89.15;100865.94;7385717;19;19922;-61
2022/10/28 09:02:21;;;;;;;;;;;;;;;19.32;88.58;100863.28;7386422;19;19910;-61
2022/10/28 09:04:50;;;;;;;;;;;;;;;19.33;88.03;100864.94;7385672;19;19919;-61
2022/10/28 09:07:19;;;;;;;;;;;;;;;19.34;87.83;100858.56;7385435;19;19939;-61
2022/10/28 09:09:47;;;;;;;;;;;;;;;19.37;88.09;100866.97;7387296;19;19919;-62
2022/10/28 09:12:33;;;;;;;;;;;;;;;19.38;87.47;100867.78;7387695;19;19950;-61
2022/10/28 09:15:11;;;;;;;;;;;;;;;19.39;86.88;100872.09;7391575;19;20257;-61
2022/10/28 09:18:03;;;;;;;;;;;;;;;19.40;87.14;100882.53;7394186;19;19911;-61
2022/10/28 09:20:29;;;;;;;;;;;;;;;19.41;86.39;100884.19;7393512;19;19935;-62
2022/10/28 09:23:07;;;;;;;;;;;;;;;19.41;85.73;100884.19;7390911;19;19943;-60
2022/10/28 09:25:57;;;;;;;;;;;;;;;19.41;84.85;100886.88;7393463;19;19915;-61
2022/10/28 09:28:24;;;;;;;;;;;;;;;19.42;84.73;100895.69;7389356;19;20340;-61
2022/10/28 09:31:09;;;;;;;;;;;;;;;19.38;82.89;100902.47;7394680;19;19919;-62
2022/10/28 09:34:07;;;;;;;;;;;;;;;19.37;83.26;100901.66;7393940;19;19922;-61
2022/10/28 09:36:36;;;;;;;;;;;;;;;19.36;82.58;100915.19;7392003;19;19961;-61
2022/10/28 09:39:04;;;;;;;;;;;;;;;19.36;82.58;100925.88;7392767;19;20296;-62
2022/10/28 09:41:32;;;;;;;;;;;;;;;19.37;82.66;100919.50;7389779;19;20006;-61
2022/10/28 09:44:06;;;;;;;;;;;;;;;19.36;82.21;100926.69;7389463;19;19945;-61
2022/10/28 09:46:33;;;;;;;;;;;;;;;19.36;81.72;100933.88;7389799;19;19919;-61
2022/10/28 09:49:04;;;;;;;;;;;;;;;19.39;82.23;100934.31;7392554;19;20019;-61
2022/10/28 09:51:43;;;;;;;;;;;;;;;19.40;80.95;100954.59;7389260;19;19962;-61
2022/10/28 09:54:11;;;;;;;;;;;;;;;19.41;80.74;100948.25;7391674;19;19919;-62
2022/10/28 09:56:39;;;;;;;;;;;;;;;19.44;80.99;100958.56;7390456;19;20026;-60
2022/10/28 09:59:06;;;;;;;;;;;;;;;19.44;80.57;100955.91;7392195;19;20331;-61
2022/10/28 10:01:34;;;;;;;;;;;;;;;19.45;81.16;100962.06;7388836;19;20287;-61
2022/10/28 10:04:02;;;;;;;;;;;;;;;19.48;81.07;100962.44;7392715;19;19999;-62
2022/10/28 10:06:34;;;;;;;;;;;;;;;19.50;80.15;100972.94;7389997;19;19919;-61
2022/10/28 10:09:01;;;;;;;;;;;;;;;19.49;79.63;100971.28;7392718;19;19948;-61
2022/10/28 10:11:31;;;;;;;;;;;;;;;19.47;79.67;100982.16;7389555;19;19922;-61
2022/10/28 10:14:02;;;;;;;;;;;;;;;19.46;79.48;100983.19;7389276;19;19919;-61
2022/10/28 10:16:31;;;;;;;;;;;;;;;19.48;79.26;100991.00;7389929;19;19922;-61
2022/10/28 10:19:00;;;;;;;;;;;;;;;19.48;79.43;100994.50;7390389;19;19911;-60
2022/10/28 10:21:39;;;;;;;;;;;;;;;19.51;79.10;101002.06;7390132;19;19949;-62
2022/10/28 10:24:25;;;;;;;;;;;;;;;19.50;77.94;101004.97;7390011;19;19949;-61
2022/10/28 10:26:52;;;;;;;;;;;;;;;19.47;77.84;100998.19;7388635;19;19919;-61
2022/10/28 10:29:19;;;;;;;;;;;;;;;19.46;77.32;101015.22;7390525;19;19935;-61
2022/10/28 10:31:46;;;;;;;;;;;;;;;19.47;77.94;101008.84;7390475;19;19922;-62
2022/10/28 10:34:21;;;;;;;;;;;;;;;19.49;78.71;101016.66;7390190;19;19926;-61
2022/10/28 10:36:49;;;;;;;;;;;;;;;19.53;78.50;101023.22;7390227;19;19922;-61
2022/10/28 10:39:21;;;;;;;;;;;;;;;19.58;78.03;101040.28;7389556;19;19925;-61
2022/10/28 10:41:48;;;;;;;;;;;;;;;19.57;77.76;101046.63;7388059;19;20311;-61
2022/10/28 10:44:21;;;;;;;;;;;;;;;19.54;76.26;101051.56;7389208;19;19943;-61
2022/10/28 10:46:54;;;;;;;;;;;;;;;19.45;76.29;101050.97;7389632;19;19918;-61
2022/10/28 10:49:20;;;;;;;;;;;;;;;19.40;76.78;101055.25;7388930;19;19919;-61
2022/10/28 10:51:57;;;;;;;;;;;;;;;19.34;76.57;101056.06;7359612;19;19918;-60
2022/10/28 10:54:26;;;;;;;;;;;;;;;19.33;76.61;101062.41;7385209;19;20010;-60
2022/10/28 10:56:52;;;;;;;;;;;;;;;19.32;76.54;101060.75;7386184;19;20245;-61
2022/10/28 10:59:22;;;;;;;;;;;;;;;19.32;77.25;101072.25;7388307;19;19918;-61
2022/10/28 11:01:49;;;;;;;;;;;;;;;19.33;76.47;101073.09;7388202;19;20460;-61
2022/10/28 11:04:18;;;;;;;;;;;;;;;19.33;76.55;101070.41;7389103;19;20275;-60
2022/10/28 11:06:49;;;;;;;;;;;;;;;19.28;75.06;101079.03;7386693;19;19929;-61
2022/10/28 11:09:28;;;;;;;;;;;;;;;19.26;74.78;101086.41;7389198;19;20475;-61
2022/10/28 11:11:55;;;;;;;;;;;;;;;19.36;77.63;101080.66;7386394;19;19958;-61
2022/10/28 11:14:23;;;;;;;;;;;;;;;19.43;79.51;101092.19;7385568;19;19915;-61
2022/10/28 11:16:54;;;;;;;;;;;;;;;19.43;77.39;101095.69;7388755;19;19943;-60
2022/10/28 11:19:28;;;;;;;;;;;;;;;19.38;74.79;101091.97;7387735;19;19922;-61
2022/10/28 11:21:54;;;;;;;;;;;;;;;19.38;75.28;101087.47;7387826;19;19926;-62
2022/10/28 11:24:33;;;;;;;;;;;;;;;19.33;73.89;101095.25;7388534;19;19923;-62
2022/10/28 11:27:12;;;;;;;;;;;;;;;19.32;73.55;101087.44;7385040;19;20699;-62
2022/10/28 11:29:39;;;;;;;;;;;;;;;19.32;73.50;101098.94;7386482;19;19919;-61
2022/10/28 11:32:21;;;;;;;;;;;;;;;19.33;73.91;101102.44;7387621;19;19923;-60
2022/10/28 11:35:14;;;;;;;;;;;;;;;19.34;73.02;101107.59;7383234;19;19919;-61
2022/10/28 11:38:13;;;;;;;;;;;;;;;19.34;72.44;101114.78;7387788;19;20358;-61
2022/10/28 11:40:49;;;;;;;;;;;;;;;19.35;73.00;101114.53;7387608;19;19943;-62
2022/10/28 11:43:47;;;;;;;;;;;;;;;19.38;73.42;101116.81;7384324;19;19946;-62
2022/10/28 11:46:48;;;;;;;;;;;;;;;19.38;73.40;101114.16;7382912;19;20355;-61
2022/10/28 11:49:58;;;;;;;;;;;;;;;19.41;73.51;101103.06;7385941;19;19918;-61
2022/10/28 11:52:59;;;;;;;;;;;;;;;19.45;74.27;101111.53;7384879;19;19935;-62
2022/10/28 11:55:56;;;;;;;;;;;;;;;19.49;73.68;101108.25;7385633;19;19918;-61
2022/10/28 11:58:50;;;;;;;;;;;;;;;19.50;72.73;101109.06;7382562;19;19923;-61
2022/10/28 12:01:42;;;;;;;;;;;;;;;19.50;74.28;101109.91;7380771;19;19932;-61
2022/10/28 12:04:12;;;;;;;;;;;;;;;19.52;73.90;101105.16;7388725;19;19925;-60
2022/10/28 12:06:45;;;;;;;;;;;;;;;19.57;74.27;101097.34;7383799;19;20344;-61
2022/10/28 12:09:17;;;;;;;;;;;;;;;19.64;74.99;101092.03;7385875;19;19922;-61
2022/10/28 12:11:52;;;;;;;;;;;;;;;19.68;74.05;101092.44;7383931;19;19919;-61
2022/10/28 12:14:33;;;;;;;;;;;;;;;19.69;73.20;101094.09;7364843;19;20686;-61
2022/10/28 12:17:15;;;;;;;;;;;;;;;19.69;72.44;101094.09;7377955;19;19915;-62
2022/10/28 12:19:57;;;;;;;;;;;;;;;19.69;72.42;101094.91;7371166;19;19918;-61
2022/10/28 12:22:50;;;;;;;;;;;;;;;19.71;72.41;101103.50;7384123;19;19923;-61
2022/10/28 12:25:24;;;;;;;;;;;;;;;19.73;72.65;101106.00;7384101;19;19955;-61
2022/10/28 12:28:01;;;;;;;;;;;;;;;19.73;72.53;101108.66;7380982;19;19951;-61
2022/10/28 12:30:47;;;;;;;;;;;;;;;19.74;73.28;101103.13;7381721;19;20408;-61
2022/10/28 12:33:46;;;;;;;;;;;;;;;19.78;72.59;101106.19;7385337;19;19978;-61
2022/10/28 12:36:38;;;;;;;;;;;;;;;19.80;73.18;101112.16;7385058;19;19919;-60
2022/10/28 12:39:51;;;;;;;;;;;;;;;19.80;72.34;101122.84;7385699;19;19921;-62
2022/10/28 12:42:42;;;;;;;;;;;;;;;19.82;73.32;101121.59;7381465;19;19935;-62
2022/10/28 12:45:24;;;;;;;;;;;;;;;19.86;72.80;101119.34;7385167;19;19942;-61
2022/10/28 12:48:06;;;;;;;;;;;;;;;19.88;72.86;101131.47;7373706;19;20336;-62
2022/10/28 12:50:46;;;;;;;;;;;;;;;19.87;72.66;101126.31;7377941;19;19939;-61
2022/10/28 12:53:44;;;;;;;;;;;;;;;19.92;74.03;101135.34;7384677;19;20280;-61
2022/10/28 12:56:39;;;;;;;;;;;;;;;19.92;72.31;101135.34;7382620;19;19919;-62